Decoded Metar for KOCQ ( in ) (IATA:) | Meteo·Mobile Aviation Weather
aviador You're here:

KOCQ Decoded Metar

in
Report Time2018-09-26 04:15:00
UTC Time2018-09-26 04:37:36
Flight Rules mvfr MVFR
Wind310° at 04 kt
W.Decomp.*RWY 29: 3.8 kt HW 1.4 kt RCW
RWY 22: 4.0 kt RCW
W.Rank310° ranks 19
Current wind is below 310° avg. (6.1)
Visibility9999 m
Phenomena:N/A
Clouds:Scattered 010 Hf
Overcast 019 Hf
Expected CloudBase > 400 ft AGL from Temp-Dew spread
Ceiling1,900 ft
Temp12°C
Dew Point11°C (94% RH)
AAT10.9°C
QNH1011 hPa
Raw Report
KOCQ 260415Z AUTO 31004KT 10SM SCT010 OVC019 12/11 A2986 RMK AO1
T01220114=

Extra information for KOCQ:More info

Social comments